Time;durP1;ratioP1;P1;durP2;ratioP2;P2;SDS_P1;SDS_P2;PMS_P1;PMS_P2;Temp;Humidity;BMP_temperature;BMP_pressure;BME280_temperature;BME280_humidity;BME280_pressure;Samples;Min_cycle;Max_cycle;Signal;HPM_P1;HPM_P2
2022/07/04 00:01:32;;;;;;;6.03;2.25;;;;;;;17.37;84.53;101552.47;4938704;28;20055;-72
2022/07/04 00:03:59;;;;;;;5.63;1.67;;;;;;;17.43;85.25;101550.81;4943471;28;20051;-71
2022/07/04 00:06:26;;;;;;;3.53;1.70;;;;;;;17.39;86.06;101558.44;4940157;28;20054;-70
2022/07/04 00:08:52;;;;;;;4.32;1.42;;;;;;;17.33;84.07;101551.75;4940543;28;20055;-70
2022/07/04 00:11:19;;;;;;;3.70;1.60;;;;;;;17.33;85.47;101552.53;4938986;28;20057;-70
2022/07/04 00:13:45;;;;;;;3.40;1.58;;;;;;;17.28;85.02;101561.41;4940687;28;20051;-70
2022/07/04 00:16:12;;;;;;;6.15;2.40;;;;;;;17.30;85.37;101553.38;4940174;28;20133;-70
2022/07/04 00:18:39;;;;;;;5.45;1.70;;;;;;;17.28;87.18;101555.03;4938585;28;20452;-70
2022/07/04 00:21:06;;;;;;;7.53;1.83;;;;;;;17.17;87.43;101545.97;4938225;28;20058;-70
2022/07/04 00:23:32;;;;;;;2.67;1.67;;;;;;;17.16;86.37;101555.59;4941482;28;20051;-70
2022/07/04 00:25:59;;;;;;;5.30;1.73;;;;;;;17.12;87.04;101557.66;4940598;28;20046;-71
2022/07/04 00:28:25;;;;;;;4.93;1.83;;;;;;;17.06;87.24;101559.34;4939651;28;20055;-70
2022/07/04 00:30:52;;;;;;;6.50;1.77;;;;;;;17.01;88.82;101554.22;4940619;28;20853;-71
2022/07/04 00:33:18;;;;;;;3.75;1.80;;;;;;;16.96;87.18;101552.69;4939273;28;20054;-70
2022/07/04 00:35:45;;;;;;;6.85;1.70;;;;;;;16.95;87.31;101541.94;4939181;28;20054;-72
2022/07/04 00:38:11;;;;;;;6.55;1.80;;;;;;;16.93;89.10;101542.34;4939188;28;20057;-70
2022/07/04 00:40:38;;;;;;;3.50;1.67;;;;;;;16.93;88.36;101541.53;4942575;28;20741;-70
2022/07/04 00:43:05;;;;;;;4.90;1.70;;;;;;;16.93;89.18;101539.56;4943163;28;20043;-70
2022/07/04 00:45:32;;;;;;;3.70;1.85;;;;;;;16.91;88.54;101535.59;4939050;28;20050;-70
2022/07/04 00:47:58;;;;;;;1.95;1.58;;;;;;;16.93;88.70;101538.75;4941021;28;20150;-71
2022/07/04 00:50:26;;;;;;;5.45;2.03;;;;;;;16.95;88.44;101539.94;4940893;28;20169;-70
2022/07/04 00:52:54;;;;;;;7.30;1.98;;;;;;;16.97;89.74;101536.69;4940387;28;20192;-74
2022/07/04 00:55:23;;;;;;;7.63;2.10;;;;;;;16.95;89.47;101534.34;4940492;28;20857;-71
2022/07/04 00:57:49;;;;;;;4.97;1.95;;;;;;;17.03;89.12;101546.19;4941243;28;20051;-71
2022/07/04 01:00:18;;;;;;;4.43;1.92;;;;;;;16.98;90.58;101541.09;4941744;28;20061;-71
2022/07/04 01:02:45;;;;;;;5.80;2.20;;;;;;;16.99;89.97;101537.06;4939104;28;20522;-70
2022/07/04 01:05:13;;;;;;;8.18;2.40;;;;;;;17.02;90.16;101533.44;4938534;28;20055;-70
2022/07/04 01:07:41;;;;;;;7.68;2.00;;;;;;;16.96;90.79;101535.13;4939898;28;20106;-70
2022/07/04 01:10:08;;;;;;;3.72;1.75;;;;;;;16.98;89.54;101544.66;4940018;28;20061;-70
2022/07/04 01:12:35;;;;;;;8.63;2.25;;;;;;;16.99;90.58;101542.66;4939251;28;20057;-71
2022/07/04 01:15:02;;;;;;;4.03;2.08;;;;;;;16.93;90.39;101538.75;4938125;28;20055;-70
2022/07/04 01:17:29;;;;;;;4.65;2.10;;;;;;;16.91;90.72;101544.75;4938332;28;20054;-69
2022/07/04 01:19:56;;;;;;;6.15;2.17;;;;;;;16.89;92.77;101543.59;4941702;28;20122;-70
2022/07/04 01:22:22;;;;;;;5.25;2.08;;;;;;;16.93;91.58;101547.13;4936836;28;20165;-71
2022/07/04 01:24:49;;;;;;;5.22;2.25;;;;;;;16.87;91.33;101535.63;4940206;28;20061;-69
2022/07/04 01:27:17;;;;;;;5.85;2.33;;;;;;;16.83;93.08;101534.09;4937672;28;20065;-70
2022/07/04 01:29:45;;;;;;;9.38;2.33;;;;;;;16.75;94.01;101538.22;4939164;28;20054;-71
2022/07/04 01:32:11;;;;;;;4.00;1.98;;;;;;;16.67;93.75;101529.13;4939114;28;20046;-70
2022/07/04 01:34:38;;;;;;;6.78;2.28;;;;;;;16.56;95.13;101528.47;4939394;28;20046;-70
2022/07/04 01:37:09;;;;;;;6.45;2.33;;;;;;;16.52;95.56;101533.31;4939564;28;20051;-70
2022/07/04 01:39:36;;;;;;;10.38;2.60;;;;;;;16.53;95.59;101525.72;4943607;28;20050;-69
2022/07/04 01:42:03;;;;;;;6.93;2.58;;;;;;;16.54;97.08;101527.31;4937202;28;20788;-69
2022/07/04 01:44:29;;;;;;;8.82;2.80;;;;;;;16.48;96.49;101531.78;4938749;28;20054;-69
2022/07/04 01:46:56;;;;;;;4.68;2.40;;;;;;;16.41;99.31;101531.84;4938014;28;20059;-69
2022/07/04 01:49:22;;;;;;;8.13;3.00;;;;;;;16.37;98.93;101528.28;4937531;28;20054;-68
2022/07/04 01:51:50;;;;;;;6.78;2.83;;;;;;;16.33;99.21;101533.13;4959172;28;20055;-69
2022/07/04 01:54:17;;;;;;;6.95;2.83;;;;;;;16.32;100.00;101523.16;4957571;28;20065;-69
2022/07/04 01:56:44;;;;;;;6.93;2.83;;;;;;;16.29;100.00;101526.78;4963945;28;20134;-68
2022/07/04 01:59:11;;;;;;;10.32;3.00;;;;;;;16.25;100.00;101529.63;4961645;28;20064;-67
2022/07/04 02:01:38;;;;;;;5.75;2.88;;;;;;;16.28;100.00;101530.78;4960883;28;20515;-68
2022/07/04 02:04:06;;;;;;;5.15;2.63;;;;;;;16.21;100.00;101531.66;4964537;28;20461;-68
2022/07/04 02:06:34;;;;;;;6.97;2.72;;;;;;;16.16;100.00;101532.13;4962977;28;20535;-68
2022/07/04 02:09:16;;;;;;;6.40;2.80;;;;;;;16.17;100.00;101535.72;4964873;28;20061;-68
2022/07/04 02:14:31;;;;;;;7.40;2.90;;;;;;;16.08;100.00;101535.41;4962231;28;20143;-68
2022/07/04 02:16:58;;;;;;;10.20;3.10;;;;;;;16.05;100.00;101541.81;4961185;28;20057;-68
2022/07/04 02:19:25;;;;;;;8.75;3.72;;;;;;;16.05;100.00;101534.22;4963786;28;20058;-68
2022/07/04 02:21:51;;;;;;;7.63;2.75;;;;;;;16.03;100.00;101533.06;4960730;28;20434;-69
2022/07/04 02:24:19;;;;;;;5.00;2.47;;;;;;;15.91;100.00;101539.97;4964675;28;20101;-69
2022/07/04 02:26:49;;;;;;;9.65;2.80;;;;;;;15.87;100.00;101538.41;4968183;28;20445;-68
2022/07/04 02:29:16;;;;;;;7.80;2.88;;;;;;;15.82;100.00;101539.66;4966833;28;20178;-69
2022/07/04 02:31:43;;;;;;;10.70;2.92;;;;;;;15.86;100.00;101534.81;4966350;28;20086;-68
2022/07/04 02:34:10;;;;;;;6.80;3.45;;;;;;;15.90;100.00;101529.22;4963705;28;21397;-68
2022/07/04 02:36:37;;;;;;;8.40;3.17;;;;;;;15.91;100.00;101537.19;4963368;28;20058;-69
2022/07/04 02:39:04;;;;;;;6.93;2.95;;;;;;;15.90;100.00;101545.97;4964278;28;20060;-68
2022/07/04 02:41:32;;;;;;;9.27;2.95;;;;;;;15.89;100.00;101547.16;4966598;28;20138;-69
2022/07/04 02:43:59;;;;;;;7.15;4.03;;;;;;;15.92;100.00;101544.34;4966368;28;20051;-70
2022/07/04 02:46:26;;;;;;;6.03;3.13;;;;;;;15.98;100.00;101548.25;4959918;28;20051;-67
2022/07/04 02:48:53;;;;;;;10.55;3.45;;;;;;;16.00;100.00;101553.44;4967115;28;20137;-69
2022/07/04 02:51:19;;;;;;;8.15;3.42;;;;;;;15.97;100.00;101557.84;4961778;28;20059;-68
2022/07/04 02:53:46;;;;;;;11.23;3.58;;;;;;;15.94;100.00;101564.25;4963104;28;20050;-67
2022/07/04 02:56:13;;;;;;;9.82;3.25;;;;;;;15.87;100.00;101569.09;4963450;28;20662;-70
2022/07/04 02:58:39;;;;;;;8.60;3.30;;;;;;;15.78;100.00;101572.38;4960127;28;20085;-69
2022/07/04 03:01:06;;;;;;;10.45;3.38;;;;;;;15.68;100.00;101581.63;4951994;28;20058;-69
2022/07/04 03:03:33;;;;;;;7.20;2.97;;;;;;;15.63;100.00;101578.50;4961220;28;20050;-68
2022/07/04 03:05:59;;;;;;;11.82;2.95;;;;;;;15.57;100.00;101580.94;4966272;28;20137;-70
2022/07/04 03:08:30;;;;;;;5.65;3.03;;;;;;;15.59;100.00;101583.31;4965775;28;20050;-68
2022/07/04 03:10:57;;;;;;;8.88;3.10;;;;;;;15.50;100.00;101584.53;4965700;28;20050;-68
2022/07/04 03:13:24;;;;;;;11.05;3.83;;;;;;;15.57;100.00;101585.72;4967772;28;20442;-68
2022/07/04 03:15:51;;;;;;;9.82;3.40;;;;;;;15.63;100.00;101584.06;4967496;28;20055;-68
2022/07/04 03:18:18;;;;;;;10.85;3.50;;;;;;;15.65;100.00;101592.84;4965716;28;20064;-68
2022/07/04 03:20:45;;;;;;;9.05;3.92;;;;;;;15.66;100.00;101600.00;4965319;28;20047;-69
2022/07/04 03:23:13;;;;;;;7.75;3.22;;;;;;;15.62;100.00;101602.03;4963079;28;20047;-69
2022/07/04 03:25:39;;;;;;;12.25;3.72;;;;;;;15.57;100.00;101602.44;4964981;28;20050;-68
2022/07/04 03:28:07;;;;;;;10.80;3.70;;;;;;;15.60;100.00;101602.44;4965539;28;20078;-68
2022/07/04 03:30:34;;;;;;;10.75;3.50;;;;;;;15.62;100.00;101599.22;4968047;28;20140;-69
2022/07/04 03:33:01;;;;;;;8.70;3.58;;;;;;;15.64;100.00;101611.56;4964233;28;20134;-68
2022/07/04 03:35:28;;;;;;;6.35;3.20;;;;;;;15.66;100.00;101608.38;4964824;28;20058;-70
2022/07/04 03:37:55;;;;;;;7.30;3.28;;;;;;;15.68;100.00;101617.09;4956839;28;20142;-69
2022/07/04 03:40:21;;;;;;;12.98;3.33;;;;;;;15.65;100.00;101624.28;4959319;28;20526;-69
2022/07/04 03:42:48;;;;;;;10.40;3.35;;;;;;;15.60;100.00;101621.16;4964107;28;20585;-71
2022/07/04 03:45:15;;;;;;;10.05;3.55;;;;;;;15.57;100.00;101623.53;4960639;28;20132;-70
2022/07/04 03:47:41;;;;;;;12.18;3.35;;;;;;;15.57;100.00;101617.19;4958862;28;20093;-69
2022/07/04 03:50:08;;;;;;;10.23;3.63;;;;;;;15.61;100.00;101622.72;4957867;28;20047;-69
2022/07/04 03:52:35;;;;;;;7.05;3.50;;;;;;;15.56;100.00;101623.19;4963306;28;20209;-72
2022/07/04 03:55:02;;;;;;;11.23;3.83;;;;;;;15.57;100.00;101627.53;4967692;28;20051;-69
2022/07/04 03:57:28;;;;;;;12.60;4.25;;;;;;;15.56;100.00;101625.97;4966558;28;20684;-72
2022/07/04 03:59:55;;;;;;;12.15;4.32;;;;;;;15.58;100.00;101627.13;4955519;28;20238;-70
2022/07/04 04:02:21;;;;;;;10.02;3.80;;;;;;;15.56;100.00;101618.41;4958931;28;20130;-70
2022/07/04 04:07:33;;;;;;;13.23;4.47;;;;;;;15.40;100.00;101624.47;4966314;28;20130;-70
2022/07/04 04:09:59;;;;;;;15.02;4.43;;;;;;;15.36;100.00;101622.91;4964797;28;20058;-70
2022/07/04 04:12:26;;;;;;;8.60;3.60;;;;;;;15.37;100.00;101630.88;4966725;28;20057;-71
2022/07/04 04:14:53;;;;;;;10.63;5.10;;;;;;;15.42;100.00;101624.84;4964728;28;20043;-69
2022/07/04 04:17:19;;;;;;;8.95;4.43;;;;;;;15.48;100.00;101630.03;4966082;28;20112;-70
2022/07/04 04:19:46;;;;;;;11.77;4.32;;;;;;;15.51;100.00;101632.78;4966256;28;20054;-70
2022/07/04 04:22:13;;;;;;;12.15;5.38;;;;;;;15.57;100.00;101633.13;4962672;28;20059;-70
2022/07/04 04:24:39;;;;;;;9.68;4.38;;;;;;;15.64;100.00;101630.28;4965788;28;20138;-69
2022/07/04 04:27:06;;;;;;;15.23;6.40;;;;;;;15.66;100.00;101642.63;4964253;28;20047;-69
2022/07/04 04:29:33;;;;;;;11.00;4.13;;;;;;;15.72;100.00;101643.78;4964862;28;20113;-69
2022/07/04 04:31:59;;;;;;;18.00;8.30;;;;;;;15.81;100.00;101640.50;4965047;28;20423;-68
2022/07/04 04:34:26;;;;;;;17.63;4.93;;;;;;;15.88;100.00;101634.88;4966347;28;20038;-68
2022/07/04 04:36:53;;;;;;;10.60;3.65;;;;;;;15.98;100.00;101637.59;4964567;28;20047;-69
2022/07/04 04:39:19;;;;;;;11.50;3.58;;;;;;;16.04;100.00;101635.94;4961574;28;20538;-69
2022/07/04 04:41:46;;;;;;;14.13;4.80;;;;;;;16.10;100.00;101645.44;4964003;28;20171;-69
2022/07/04 04:44:12;;;;;;;15.30;4.65;;;;;;;16.18;100.00;101638.59;4964997;28;20141;-69
2022/07/04 04:46:39;;;;;;;8.98;3.80;;;;;;;16.23;100.00;101646.53;4966394;28;20141;-70
2022/07/04 04:49:06;;;;;;;9.15;3.80;;;;;;;16.27;100.00;101644.47;4964576;28;20051;-68
2022/07/04 04:51:32;;;;;;;12.10;3.70;;;;;;;16.34;100.00;101646.44;4963034;28;20138;-69
2022/07/04 04:53:59;;;;;;;11.43;3.90;;;;;;;16.40;100.00;101644.78;4963250;28;20162;-69
2022/07/04 04:56:26;;;;;;;9.60;4.20;;;;;;;16.46;100.00;101643.13;4963221;28;20058;-69
2022/07/04 04:58:52;;;;;;;16.73;6.70;;;;;;;16.58;100.00;101642.63;4966635;28;20533;-70
2022/07/04 05:01:19;;;;;;;20.73;6.70;;;;;;;16.62;100.00;101646.16;4960419;28;20511;-70
2022/07/04 05:04:05;;;;;;;20.92;6.93;;;;;;;16.58;100.00;101648.19;4959655;28;20079;-71
2022/07/04 05:06:32;;;;;;;15.05;6.18;;;;;;;16.58;100.00;101646.22;4963767;28;20051;-69
2022/07/04 05:08:59;;;;;;;20.40;6.30;;;;;;;16.70;100.00;101647.66;4961014;28;20480;-70
2022/07/04 05:11:26;;;;;;;18.48;6.72;;;;;;;16.74;100.00;101651.22;4955848;28;20145;-68
2022/07/04 05:13:52;;;;;;;21.75;6.85;;;;;;;16.81;100.00;101649.13;4959486;28;20425;-70
2022/07/04 05:16:19;;;;;;;13.65;4.93;;;;;;;16.73;100.00;101658.81;4964811;28;20431;-70
2022/07/04 05:18:46;;;;;;;15.52;5.90;;;;;;;16.74;100.00;101657.59;4958439;28;20059;-70
2022/07/04 05:21:12;;;;;;;18.60;5.82;;;;;;;16.81;100.00;101651.91;4960017;28;20162;-68
2022/07/04 05:23:39;;;;;;;13.38;4.10;;;;;;;16.75;100.00;101650.00;4961608;28;20150;-69
2022/07/04 05:26:05;;;;;;;15.55;6.22;;;;;;;16.86;100.00;101659.03;4964053;28;20859;-69
2022/07/04 05:28:32;;;;;;;13.07;5.78;;;;;;;16.87;100.00;101655.84;4966006;28;20069;-69
2022/07/04 05:30:58;;;;;;;18.85;5.93;;;;;;;16.87;100.00;101652.28;4967574;28;20065;-68
2022/07/04 05:33:25;;;;;;;17.38;5.65;;;;;;;16.87;100.00;101655.84;4966976;28;20141;-68
2022/07/04 05:35:51;;;;;;;19.85;7.65;;;;;;;17.01;100.00;101654.88;4967000;28;20054;-69
2022/07/04 05:38:18;;;;;;;21.35;6.43;;;;;;;17.01;100.00;101655.66;4968147;28;20126;-68
2022/07/04 05:40:45;;;;;;;19.55;7.32;;;;;;;17.04;100.00;101654.06;4965593;28;20221;-68
2022/07/04 05:43:11;;;;;;;16.55;5.38;;;;;;;17.10;100.00;101655.16;4966967;28;20166;-69
2022/07/04 05:45:38;;;;;;;18.48;5.60;;;;;;;17.12;100.00;101655.53;4967264;28;20102;-70
2022/07/04 05:48:05;;;;;;;19.52;6.75;;;;;;;17.28;100.00;101648.09;4964699;28;20058;-69
2022/07/04 05:50:31;;;;;;;16.55;6.82;;;;;;;17.37;100.00;101656.78;4963388;28;20089;-69
2022/07/04 05:52:59;;;;;;;14.77;5.53;;;;;;;17.37;100.00;101661.56;4960516;28;20051;-68
2022/07/04 05:55:26;;;;;;;19.92;6.35;;;;;;;17.47;100.00;101655.06;4967062;28;20050;-70
2022/07/04 05:57:53;;;;;;;18.58;7.93;;;;;;;17.57;100.00;101649.31;4969033;28;20522;-69
2022/07/04 06:00:19;;;;;;;20.15;7.65;;;;;;;17.62;100.00;101651.63;4966189;28;20535;-69
2022/07/04 06:02:46;;;;;;;17.98;7.00;;;;;;;17.77;100.00;101650.22;4968546;28;20145;-73
2022/07/04 06:05:13;;;;;;;20.52;8.60;;;;;;;17.87;100.00;101643.66;4965475;28;20492;-70
2022/07/04 06:07:40;;;;;;;19.42;6.65;;;;;;;17.93;100.00;101643.97;4965575;28;20082;-71
2022/07/04 06:10:07;;;;;;;15.85;5.63;;;;;;;18.00;100.00;101643.84;4969769;28;20054;-71
2022/07/04 06:12:33;;;;;;;18.13;5.60;;;;;;;18.03;100.00;101640.97;4959216;28;20057;-69
2022/07/04 06:15:00;;;;;;;17.55;6.72;;;;;;;18.15;100.00;101633.19;4969973;28;20061;-70
2022/07/04 06:17:27;;;;;;;14.85;5.70;;;;;;;18.26;100.00;101645.00;4962375;28;20463;-69
2022/07/04 06:19:54;;;;;;;19.25;6.00;;;;;;;18.39;100.00;101640.38;4963752;28;20187;-69
2022/07/04 06:22:20;;;;;;;15.65;5.07;;;;;;;18.41;100.00;101643.53;4968813;28;20129;-72
2022/07/04 06:24:51;;;;;;;9.95;3.95;;;;;;;18.44;97.64;101637.06;4971223;28;20071;-69
2022/07/04 06:27:17;;;;;;;16.42;5.00;;;;;;;18.43;97.22;101641.91;4968881;28;20065;-70
2022/07/04 06:29:44;;;;;;;14.18;4.28;;;;;;;18.41;93.33;101633.13;4961289;28;20406;-68
2022/07/04 06:32:10;;;;;;;17.00;5.28;;;;;;;18.49;95.83;101642.97;4961006;28;20137;-67
2022/07/04 06:37:22;;;;;;;9.43;2.77;;;;;;;18.57;91.29;101650.03;4969313;28;20078;-69
2022/07/04 06:39:48;;;;;;;7.82;3.00;;;;;;;18.69;90.23;101655.00;4967366;28;20134;-67
2022/07/04 06:42:15;;;;;;;15.00;4.93;;;;;;;18.81;90.06;101648.75;4969463;28;20055;-69
2022/07/04 06:44:42;;;;;;;10.68;3.42;;;;;;;18.82;87.64;101649.53;4969476;28;20611;-66
2022/07/04 06:47:09;;;;;;;10.27;2.95;;;;;;;18.88;87.53;101647.81;4969147;28;20059;-67
2022/07/04 06:49:35;;;;;;;13.10;4.53;;;;;;;19.04;85.65;101645.84;4965283;28;20046;-67
2022/07/04 06:52:02;;;;;;;16.48;4.13;;;;;;;19.16;85.42;101650.81;4959392;28;20061;-67
2022/07/04 06:54:28;;;;;;;14.35;5.88;;;;;;;19.18;84.09;101654.00;4966271;28;20130;-67
2022/07/04 06:56:55;;;;;;;15.40;5.20;;;;;;;19.24;85.17;101649.44;4960536;28;20139;-66
2022/07/04 06:59:41;;;;;;;3.00;1.27;;;;;;;19.18;84.17;101651.19;4963535;28;20055;-69
2022/07/04 07:02:08;;;;;;;12.68;4.10;;;;;;;19.39;84.88;101647.94;4960608;28;20054;-68
2022/07/04 07:04:35;;;;;;;15.35;3.85;;;;;;;19.47;85.29;101645.75;4970214;28;20089;-68
2022/07/04 07:07:02;;;;;;;11.85;4.35;;;;;;;19.53;83.69;101642.00;4964852;28;20055;-68
2022/07/04 07:09:28;;;;;;;12.57;3.65;;;;;;;19.66;82.58;101642.88;4961768;28;20061;-67
2022/07/04 07:11:55;;;;;;;9.57;4.28;;;;;;;19.69;81.88;101644.81;4958259;28;20051;-68
2022/07/04 07:14:22;;;;;;;13.85;3.35;;;;;;;19.77;82.14;101645.44;4966227;28;20046;-67
2022/07/04 07:16:48;;;;;;;12.02;3.50;;;;;;;19.77;81.82;101637.00;4963312;28;20074;-68
2022/07/04 07:19:15;;;;;;;8.00;2.50;;;;;;;19.76;79.02;101641.03;4961806;28;20552;-67
2022/07/04 07:21:41;;;;;;;11.30;3.20;;;;;;;19.90;76.05;101644.31;4967353;28;20574;-66
2022/07/04 07:24:08;;;;;;;11.93;3.72;;;;;;;19.92;74.03;101641.81;4959156;28;20082;-68
2022/07/04 07:26:35;;;;;;;3.97;1.65;;;;;;;19.85;73.87;101653.25;4962615;28;20058;-68
2022/07/04 07:29:02;;;;;;;16.65;4.85;;;;;;;20.07;74.48;101645.88;4964253;28;20051;-68
2022/07/04 07:31:29;;;;;;;13.80;3.85;;;;;;;20.07;70.80;101645.88;4964040;28;20070;-70
2022/07/04 07:33:55;;;;;;;9.77;3.15;;;;;;;20.10;70.31;101639.38;4960141;28;20055;-68
2022/07/04 07:36:22;;;;;;;12.75;3.70;;;;;;;20.27;72.03;101649.41;4965663;28;20559;-67
2022/07/04 07:38:49;;;;;;;7.30;2.60;;;;;;;20.44;69.26;101650.16;4965452;28;20059;-68
2022/07/04 07:41:16;;;;;;;12.55;3.85;;;;;;;20.45;68.34;101659.38;4959854;28;20077;-67
2022/07/04 07:43:42;;;;;;;10.35;2.72;;;;;;;20.48;67.38;101652.88;4966349;28;20443;-66
2022/07/04 07:46:09;;;;;;;3.75;1.33;;;;;;;20.30;65.27;101653.34;4964574;28;20074;-68
2022/07/04 07:48:36;;;;;;;10.65;2.90;;;;;;;20.57;66.32;101648.19;4957028;28;20058;-68
2022/07/04 07:51:02;;;;;;;10.77;2.65;;;;;;;20.60;65.35;101652.94;4961685;28;20093;-66
2022/07/04 07:53:29;;;;;;;3.63;1.45;;;;;;;20.30;64.45;101642.09;4963919;28;20080;-68
2022/07/04 07:55:56;;;;;;;10.45;2.80;;;;;;;20.46;66.02;101649.72;4963932;28;20146;-67
2022/07/04 07:58:22;;;;;;;8.80;2.50;;;;;;;20.62;64.86;101646.88;4962706;28;20054;-66
2022/07/04 08:00:49;;;;;;;7.85;2.58;;;;;;;20.70;64.61;101643.41;4964705;28;20133;-66
2022/07/04 08:06:07;;;;;;;7.47;1.98;;;;;;;20.61;62.31;101650.91;4971056;28;20050;-67
2022/07/04 08:08:33;;;;;;;7.35;2.10;;;;;;;20.66;62.96;101653.19;4963320;28;20137;-67
2022/07/04 08:11:00;;;;;;;10.73;2.50;;;;;;;20.85;64.46;101652.25;4964577;28;20177;-67
2022/07/04 08:13:27;;;;;;;6.95;2.40;;;;;;;20.92;64.20;101655.63;4958813;28;20043;-68
2022/07/04 08:15:53;;;;;;;8.27;2.22;;;;;;;20.90;60.74;101651.69;4958997;28;20182;-69
2022/07/04 08:18:20;;;;;;;7.30;2.00;;;;;;;20.85;61.53;101641.00;4960293;28;20079;-69
2022/07/04 08:20:47;;;;;;;6.38;1.73;;;;;;;20.89;64.09;101650.88;4957602;28;20467;-67
2022/07/04 08:23:32;;;;;;;3.35;1.10;;;;;;;20.84;60.48;101645.81;4959169;28;20062;-67
2022/07/04 08:26:00;;;;;;;2.75;1.02;;;;;;;20.83;61.79;101640.63;4959118;28;20050;-69
2022/07/04 08:28:27;;;;;;;10.95;2.28;;;;;;;20.95;61.17;101628.69;4960633;28;20098;-67
2022/07/04 08:30:56;;;;;;;2.65;0.68;;;;;;;20.94;60.76;101633.50;4956299;28;20166;-69
2022/07/04 08:33:23;;;;;;;10.45;2.17;;;;;;;21.22;59.61;101634.66;4957328;28;20051;-69
2022/07/04 08:35:50;;;;;;;10.13;2.30;;;;;;;21.24;57.63;101637.84;4953809;28;20039;-68
2022/07/04 08:38:17;;;;;;;11.57;2.00;;;;;;;21.38;55.75;101632.56;4956870;28;20138;-70
2022/07/04 08:40:44;;;;;;;5.10;1.65;;;;;;;21.53;57.81;101632.91;4965781;28;20054;-67
2022/07/04 08:43:14;;;;;;;2.90;1.42;;;;;;;21.48;54.14;101650.34;4963824;28;20055;-68
2022/07/04 08:45:41;;;;;;;6.38;1.73;;;;;;;21.70;55.64;101640.78;4962854;28;20042;-70
2022/07/04 08:48:30;;;;;;;8.23;1.90;;;;;;;21.77;54.44;101640.56;4966076;28;20042;-67
2022/07/04 08:51:07;;;;;;;9.23;2.53;;;;;;;21.73;54.72;101634.28;4963536;28;20097;-69
2022/07/04 08:53:38;;;;;;;6.40;1.98;;;;;;;22.03;55.96;101642.13;4962569;28;20105;-69
2022/07/04 08:58:53;;;;;;;9.65;2.33;;;;;;;22.10;53.50;101646.72;4962415;28;20065;-68
2022/07/04 09:01:20;;;;;;;6.35;1.60;;;;;;;22.30;54.10;101647.22;4961334;28;20064;-67
2022/07/04 09:03:49;;;;;;;8.18;2.33;;;;;;;22.49;53.03;101632.09;4964081;28;20190;-68
2022/07/04 09:06:16;;;;;;;7.50;1.70;;;;;;;22.57;52.12;101641.88;4961620;28;20436;-68
2022/07/04 09:08:43;;;;;;;5.07;1.95;;;;;;;22.60;50.63;101638.94;4963332;28;20051;-68
2022/07/04 09:11:09;;;;;;;6.80;1.27;;;;;;;22.62;50.03;101641.28;4964292;28;20630;-67
2022/07/04 09:13:36;;;;;;;10.13;1.60;;;;;;;22.70;49.95;101631.31;4968057;28;20082;-68
2022/07/04 09:16:03;;;;;;;5.43;0.43;;;;;;;22.51;47.24;101632.44;4962819;28;20142;-66
2022/07/04 09:18:32;;;;;;;1.85;0.60;;;;;;;22.58;48.31;101624.50;4959601;28;20050;-68
2022/07/04 09:21:09;;;;;;;4.57;1.75;;;;;;;22.73;48.47;101624.75;4955625;28;20055;-69
2022/07/04 09:23:39;;;;;;;7.45;1.58;;;;;;;22.86;48.91;101631.13;4956163;28;20050;-67
2022/07/04 09:26:15;;;;;;;5.55;1.08;;;;;;;22.28;47.33;101636.41;4960082;28;20075;-68
2022/07/04 09:28:49;;;;;;;7.38;1.70;;;;;;;22.46;48.16;101622.50;4960277;28;20078;-68
2022/07/04 09:31:24;;;;;;;4.60;1.90;;;;;;;22.46;47.30;101618.88;4964831;28;20141;-69
2022/07/04 09:33:57;;;;;;;0.75;0.60;;;;;;;22.38;48.71;101632.44;4963991;28;20108;-68
2022/07/04 09:36:26;;;;;;;8.38;2.08;;;;;;;22.52;48.75;101619.91;4967148;28;20085;-70
2022/07/04 09:39:20;;;;;;;7.43;1.80;;;;;;;22.57;47.35;101627.75;4967288;28;20575;-67
2022/07/04 09:41:57;;;;;;;6.03;1.45;;;;;;;22.57;48.26;101627.75;4968888;28;20070;-72
2022/07/04 09:44:42;;;;;;;4.35;1.35;;;;;;;22.55;47.93;101631.03;4967932;28;20388;-67
2022/07/04 09:47:24;;;;;;;5.70;1.98;;;;;;;22.80;48.40;101624.50;4933627;28;20879;-70
2022/07/04 09:49:58;;;;;;;5.72;2.08;;;;;;;22.94;48.58;101618.31;4942302;28;20638;-74
2022/07/04 09:52:27;;;;;;;8.82;2.45;;;;;;;23.20;48.30;101621.75;4936161;28;20802;-70
2022/07/04 09:55:02;;;;;;;8.35;2.25;;;;;;;23.26;48.06;101617.94;4940955;28;20062;-70
2022/07/04 09:57:30;;;;;;;3.85;1.05;;;;;;;23.22;47.00;101620.06;4938718;28;20050;-70
2022/07/04 09:59:57;;;;;;;9.70;2.00;;;;;;;23.49;47.77;101622.25;4936042;28;20055;-73
2022/07/04 10:02:24;;;;;;;4.93;1.58;;;;;;;23.59;46.70;101623.88;4945088;28;20055;-70
2022/07/04 10:04:52;;;;;;;6.90;1.73;;;;;;;23.66;46.09;101615.88;4943647;28;20057;-72
2022/07/04 10:07:47;;;;;;;8.88;1.80;;;;;;;23.80;45.05;101623.78;4950444;28;20073;-71
2022/07/04 10:10:28;;;;;;;7.68;1.63;;;;;;;23.90;45.84;101631.03;4942466;28;20069;-71
2022/07/04 10:12:57;;;;;;;3.55;0.88;;;;;;;23.39;43.48;101626.28;4948103;28;20165;-71
2022/07/04 10:15:24;;;;;;;2.35;0.57;;;;;;;23.59;44.32;101618.22;4947016;28;20046;-70
2022/07/04 10:17:51;;;;;;;7.47;1.70;;;;;;;23.89;45.82;101623.78;4948410;28;20156;-72
2022/07/04 10:20:17;;;;;;;5.35;1.80;;;;;;;24.14;45.19;101614.31;4949675;28;20058;-74
2022/07/04 10:22:44;;;;;;;7.18;2.15;;;;;;;24.11;43.85;101618.06;4948186;28;20061;-72
2022/07/04 10:25:11;;;;;;;6.32;2.00;;;;;;;24.30;44.33;101614.00;4951083;28;20061;-72
2022/07/04 10:27:38;;;;;;;7.22;1.60;;;;;;;24.63;44.40;101617.78;4950081;28;20206;-71
2022/07/04 10:30:09;;;;;;;2.47;1.33;;;;;;;24.39;42.29;101622.50;4944948;28;20094;-70
2022/07/04 10:32:37;;;;;;;10.43;2.13;;;;;;;24.26;42.92;101616.97;4947827;28;20074;-72
2022/07/04 10:35:04;;;;;;;6.82;1.40;;;;;;;24.57;43.29;101609.13;4949387;28;20059;-72
2022/07/04 10:38:07;;;;;;;6.82;1.10;;;;;;;24.52;43.04;101606.94;4945770;28;20059;-73
2022/07/04 10:40:46;;;;;;;6.28;1.90;;;;;;;24.78;42.21;101599.69;4945106;28;20572;-73
2022/07/04 10:43:48;;;;;;;3.13;1.83;;;;;;;24.55;42.24;101605.22;4944505;28;20257;-72
2022/07/04 10:46:14;;;;;;;6.85;2.00;;;;;;;24.92;42.94;101598.28;4938653;28;20972;-71
2022/07/04 10:49:01;;;;;;;7.60;2.35;;;;;;;25.35;42.45;101591.41;4948947;28;20090;-71
2022/07/04 10:51:48;;;;;;;7.07;1.67;;;;;;;25.58;41.51;101594.28;4948615;28;20078;-70
2022/07/04 10:54:31;;;;;;;3.35;1.48;;;;;;;25.52;42.18;101595.41;4944428;28;20057;-74
2022/07/04 10:57:14;;;;;;;6.60;2.50;;;;;;;25.69;41.31;101585.25;4950568;28;20059;-71
2022/07/04 10:59:53;;;;;;;11.55;2.20;;;;;;;25.74;41.32;101576.88;4945348;28;20827;-72
2022/07/04 11:02:20;;;;;;;5.72;1.90;;;;;;;25.90;41.99;101590.63;4946388;28;20498;-70
2022/07/04 11:05:00;;;;;;;6.82;1.95;;;;;;;25.42;41.87;101588.22;4949281;28;20145;-71
2022/07/04 11:07:30;;;;;;;5.95;1.75;;;;;;;25.65;40.81;101581.81;4948802;28;20169;-71
2022/07/04 11:10:28;;;;;;;9.43;2.53;;;;;;;25.84;40.19;101581.22;4951101;28;20762;-71
2022/07/04 11:12:59;;;;;;;9.55;1.95;;;;;;;26.20;40.00;101575.34;4935838;28;20146;-72
2022/07/04 11:15:28;;;;;;;2.63;1.10;;;;;;;25.45;38.75;101576.72;4948525;28;20136;-71
2022/07/04 11:17:54;;;;;;;4.90;1.80;;;;;;;25.72;39.54;101564.47;4942871;28;20050;-70
2022/07/04 11:20:23;;;;;;;8.57;1.42;;;;;;;25.61;38.49;101567.03;4944628;28;20051;-72
2022/07/04 11:22:50;;;;;;;4.25;1.10;;;;;;;26.05;39.33;101562.38;4946980;28;20133;-70
2022/07/04 11:25:17;;;;;;;8.95;2.05;;;;;;;26.35;38.17;101553.44;4945558;28;20093;-71
2022/07/04 11:27:44;;;;;;;6.15;1.60;;;;;;;26.76;37.80;101546.00;4944009;28;20478;-72
2022/07/04 11:30:10;;;;;;;6.82;1.23;;;;;;;27.12;37.22;101549.19;4948010;28;20141;-71
2022/07/04 11:32:41;;;;;;;4.82;1.52;;;;;;;27.55;36.53;101549.63;4942819;28;20082;-71
2022/07/04 11:35:08;;;;;;;6.95;1.30;;;;;;;27.45;36.68;101548.97;4947591;28;20245;-72
2022/07/04 11:37:34;;;;;;;6.45;1.70;;;;;;;26.73;37.14;101552.66;4946816;28;20505;-72
2022/07/04 11:45:52;;;;;;;7.43;1.60;;;;;;;27.92;36.31;101554.31;4944510;28;19926;-71